sensor_id;sensor_type;location;lat;lon;timestamp;P1;durP1;ratioP1;P2;durP2;ratioP2
27145;SDS011;17980;51.744;7.190;2022-11-11T00:01:28;4.10;;;1.50;;
27145;SDS011;17980;51.744;7.190;2022-11-11T00:03:55;4.83;;;2.10;;
27145;SDS011;17980;51.744;7.190;2022-11-11T00:06:22;12.73;;;2.67;;
27145;SDS011;17980;51.744;7.190;2022-11-11T00:08:50;6.60;;;1.50;;
27145;SDS011;17980;51.744;7.190;2022-11-11T00:11:17;3.30;;;1.40;;
27145;SDS011;17980;51.744;7.190;2022-11-11T00:13:44;7.77;;;2.00;;
27145;SDS011;17980;51.744;7.190;2022-11-11T00:16:21;5.53;;;2.00;;
27145;SDS011;17980;51.744;7.190;2022-11-11T00:18:48;7.47;;;2.50;;
27145;SDS011;17980;51.744;7.190;2022-11-11T00:21:34;6.93;;;1.97;;
27145;SDS011;17980;51.744;7.190;2022-11-11T00:24:21;7.23;;;2.27;;
27145;SDS011;17980;51.744;7.190;2022-11-11T00:27:07;5.73;;;1.83;;
27145;SDS011;17980;51.744;7.190;2022-11-11T00:29:35;4.13;;;1.63;;
27145;SDS011;17980;51.744;7.190;2022-11-11T00:32:03;3.27;;;1.60;;
27145;SDS011;17980;51.744;7.190;2022-11-11T00:34:46;5.53;;;2.10;;
27145;SDS011;17980;51.744;7.190;2022-11-11T00:37:33;5.53;;;2.13;;
27145;SDS011;17980;51.744;7.190;2022-11-11T00:40:01;9.97;;;2.13;;
27145;SDS011;17980;51.744;7.190;2022-11-11T00:42:29;6.43;;;2.07;;
27145;SDS011;17980;51.744;7.190;2022-11-11T00:44:56;6.83;;;1.73;;
27145;SDS011;17980;51.744;7.190;2022-11-11T00:47:33;4.37;;;2.07;;
27145;SDS011;17980;51.744;7.190;2022-11-11T00:50:19;7.10;;;1.70;;
27145;SDS011;17980;51.744;7.190;2022-11-11T00:53:08;4.57;;;1.77;;
27145;SDS011;17980;51.744;7.190;2022-11-11T00:55:45;9.17;;;2.23;;
27145;SDS011;17980;51.744;7.190;2022-11-11T00:58:12;6.90;;;2.07;;
27145;SDS011;17980;51.744;7.190;2022-11-11T01:00:41;8.30;;;2.27;;
27145;SDS011;17980;51.744;7.190;2022-11-11T01:03:18;5.07;;;2.07;;
27145;SDS011;17980;51.744;7.190;2022-11-11T01:05:45;5.50;;;1.90;;
27145;SDS011;17980;51.744;7.190;2022-11-11T01:08:14;3.70;;;1.90;;
27145;SDS011;17980;51.744;7.190;2022-11-11T01:10:41;5.23;;;2.07;;
27145;SDS011;17980;51.744;7.190;2022-11-11T01:13:21;8.50;;;2.87;;
27145;SDS011;17980;51.744;7.190;2022-11-11T01:15:48;4.57;;;2.10;;
27145;SDS011;17980;51.744;7.190;2022-11-11T01:18:18;4.87;;;2.43;;
27145;SDS011;17980;51.744;7.190;2022-11-11T01:20:47;5.83;;;2.33;;
27145;SDS011;17980;51.744;7.190;2022-11-11T01:23:24;7.07;;;2.30;;
27145;SDS011;17980;51.744;7.190;2022-11-11T01:25:51;6.43;;;1.97;;
27145;SDS011;17980;51.744;7.190;2022-11-11T01:28:18;4.37;;;1.87;;
27145;SDS011;17980;51.744;7.190;2022-11-11T01:30:46;6.83;;;2.20;;
27145;SDS011;17980;51.744;7.190;2022-11-11T01:33:22;8.73;;;2.80;;
27145;SDS011;17980;51.744;7.190;2022-11-11T01:35:50;6.87;;;2.27;;
27145;SDS011;17980;51.744;7.190;2022-11-11T01:38:17;7.00;;;2.27;;
27145;SDS011;17980;51.744;7.190;2022-11-11T01:40:45;7.00;;;2.50;;
27145;SDS011;17980;51.744;7.190;2022-11-11T01:43:16;4.73;;;2.20;;
27145;SDS011;17980;51.744;7.190;2022-11-11T01:45:50;4.37;;;2.30;;
27145;SDS011;17980;51.744;7.190;2022-11-11T01:48:30;5.30;;;2.13;;
27145;SDS011;17980;51.744;7.190;2022-11-11T01:51:19;6.70;;;2.20;;
27145;SDS011;17980;51.744;7.190;2022-11-11T01:53:59;6.03;;;2.40;;
27145;SDS011;17980;51.744;7.190;2022-11-11T01:56:30;5.77;;;2.03;;
27145;SDS011;17980;51.744;7.190;2022-11-11T01:58:59;7.53;;;2.70;;
27145;SDS011;17980;51.744;7.190;2022-11-11T02:01:28;6.90;;;2.37;;
27145;SDS011;17980;51.744;7.190;2022-11-11T02:04:05;5.97;;;2.43;;
27145;SDS011;17980;51.744;7.190;2022-11-11T02:06:52;7.73;;;2.43;;
27145;SDS011;17980;51.744;7.190;2022-11-11T02:09:21;8.23;;;2.50;;
27145;SDS011;17980;51.744;7.190;2022-11-11T02:12:05;6.07;;;2.40;;
27145;SDS011;17980;51.744;7.190;2022-11-11T02:14:54;4.73;;;2.40;;
27145;SDS011;17980;51.744;7.190;2022-11-11T02:17:32;10.30;;;2.70;;
27145;SDS011;17980;51.744;7.190;2022-11-11T02:20:00;7.10;;;2.53;;
27145;SDS011;17980;51.744;7.190;2022-11-11T02:22:31;8.03;;;2.87;;
27145;SDS011;17980;51.744;7.190;2022-11-11T02:25:10;9.67;;;2.50;;
27145;SDS011;17980;51.744;7.190;2022-11-11T02:27:41;6.10;;;2.70;;
27145;SDS011;17980;51.744;7.190;2022-11-11T02:30:11;5.17;;;2.60;;
27145;SDS011;17980;51.744;7.190;2022-11-11T02:32:51;9.40;;;2.70;;
27145;SDS011;17980;51.744;7.190;2022-11-11T02:35:42;9.50;;;3.20;;
27145;SDS011;17980;51.744;7.190;2022-11-11T02:38:13;5.33;;;3.00;;
27145;SDS011;17980;51.744;7.190;2022-11-11T02:40:41;4.03;;;2.40;;
27145;SDS011;17980;51.744;7.190;2022-11-11T02:43:18;13.70;;;2.77;;
27145;SDS011;17980;51.744;7.190;2022-11-11T02:45:45;7.57;;;2.67;;
27145;SDS011;17980;51.744;7.190;2022-11-11T02:48:12;8.03;;;3.37;;
27145;SDS011;17980;51.744;7.190;2022-11-11T02:50:49;6.77;;;3.60;;
27145;SDS011;17980;51.744;7.190;2022-11-11T02:53:16;3.80;;;2.97;;
27145;SDS011;17980;51.744;7.190;2022-11-11T02:55:53;8.33;;;3.27;;
27145;SDS011;17980;51.744;7.190;2022-11-11T02:58:20;4.60;;;2.70;;
27145;SDS011;17980;51.744;7.190;2022-11-11T03:00:48;6.40;;;3.00;;
27145;SDS011;17980;51.744;7.190;2022-11-11T03:03:25;7.80;;;3.00;;
27145;SDS011;17980;51.744;7.190;2022-11-11T03:05:52;5.90;;;3.10;;
27145;SDS011;17980;51.744;7.190;2022-11-11T03:08:19;10.33;;;3.90;;
27145;SDS011;17980;51.744;7.190;2022-11-11T03:10:46;7.60;;;3.50;;
27145;SDS011;17980;51.744;7.190;2022-11-11T03:13:13;4.33;;;2.57;;
27145;SDS011;17980;51.744;7.190;2022-11-11T03:15:41;7.80;;;3.10;;
27145;SDS011;17980;51.744;7.190;2022-11-11T03:18:18;9.73;;;3.20;;
27145;SDS011;17980;51.744;7.190;2022-11-11T03:23:21;6.43;;;2.93;;
27145;SDS011;17980;51.744;7.190;2022-11-11T03:25:48;9.67;;;3.37;;
27145;SDS011;17980;51.744;7.190;2022-11-11T03:28:25;6.70;;;3.17;;
27145;SDS011;17980;51.744;7.190;2022-11-11T03:33:28;12.93;;;4.10;;
27145;SDS011;17980;51.744;7.190;2022-11-11T03:38:31;8.23;;;3.30;;
27145;SDS011;17980;51.744;7.190;2022-11-11T03:40:59;7.43;;;3.17;;
27145;SDS011;17980;51.744;7.190;2022-11-11T03:43:35;9.17;;;3.40;;
27145;SDS011;17980;51.744;7.190;2022-11-11T03:46:03;6.47;;;3.30;;
27145;SDS011;17980;51.744;7.190;2022-11-11T03:48:32;6.30;;;2.90;;
27145;SDS011;17980;51.744;7.190;2022-11-11T03:50:59;6.07;;;3.60;;
27145;SDS011;17980;51.744;7.190;2022-11-11T03:53:36;11.07;;;3.20;;
27145;SDS011;17980;51.744;7.190;2022-11-11T03:58:40;9.53;;;3.23;;
27145;SDS011;17980;51.744;7.190;2022-11-11T04:01:07;11.53;;;4.13;;
27145;SDS011;17980;51.744;7.190;2022-11-11T04:03:44;8.03;;;3.87;;
27145;SDS011;17980;51.744;7.190;2022-11-11T04:06:29;10.27;;;3.77;;
27145;SDS011;17980;51.744;7.190;2022-11-11T04:09:15;5.87;;;3.53;;
27145;SDS011;17980;51.744;7.190;2022-11-11T04:12:00;7.83;;;3.70;;
27145;SDS011;17980;51.744;7.190;2022-11-11T04:14:38;6.53;;;3.53;;
27145;SDS011;17980;51.744;7.190;2022-11-11T04:17:23;10.40;;;3.80;;
27145;SDS011;17980;51.744;7.190;2022-11-11T04:19:50;9.13;;;3.37;;
27145;SDS011;17980;51.744;7.190;2022-11-11T04:22:27;9.60;;;3.73;;
27145;SDS011;17980;51.744;7.190;2022-11-11T04:24:54;9.90;;;3.90;;
27145;SDS011;17980;51.744;7.190;2022-11-11T04:27:39;9.47;;;3.80;;
27145;SDS011;17980;51.744;7.190;2022-11-11T04:30:08;9.57;;;3.40;;
27145;SDS011;17980;51.744;7.190;2022-11-11T04:32:45;7.67;;;3.90;;
27145;SDS011;17980;51.744;7.190;2022-11-11T04:35:12;8.67;;;4.40;;
27145;SDS011;17980;51.744;7.190;2022-11-11T04:40:19;13.33;;;4.23;;
27145;SDS011;17980;51.744;7.190;2022-11-11T04:43:05;13.03;;;4.70;;
27145;SDS011;17980;51.744;7.190;2022-11-11T04:45:42;9.57;;;4.63;;
27145;SDS011;17980;51.744;7.190;2022-11-11T04:48:09;8.43;;;4.37;;
27145;SDS011;17980;51.744;7.190;2022-11-11T04:50:46;8.77;;;3.80;;
27145;SDS011;17980;51.744;7.190;2022-11-11T04:53:13;12.20;;;4.53;;
27145;SDS011;17980;51.744;7.190;2022-11-11T04:55:42;7.90;;;3.77;;
27145;SDS011;17980;51.744;7.190;2022-11-11T04:58:29;8.43;;;3.60;;
27145;SDS011;17980;51.744;7.190;2022-11-11T05:00:58;12.80;;;4.40;;
27145;SDS011;17980;51.744;7.190;2022-11-11T05:03:35;15.23;;;7.83;;
27145;SDS011;17980;51.744;7.190;2022-11-11T05:06:03;6.83;;;4.00;;
27145;SDS011;17980;51.744;7.190;2022-11-11T05:08:40;6.77;;;4.00;;
27145;SDS011;17980;51.744;7.190;2022-11-11T05:11:24;9.27;;;5.63;;
27145;SDS011;17980;51.744;7.190;2022-11-11T05:13:53;6.83;;;4.10;;
27145;SDS011;17980;51.744;7.190;2022-11-11T05:16:32;10.40;;;4.70;;
27145;SDS011;17980;51.744;7.190;2022-11-11T05:19:19;11.00;;;3.50;;
27145;SDS011;17980;51.744;7.190;2022-11-11T05:22:07;8.87;;;4.17;;
27145;SDS011;17980;51.744;7.190;2022-11-11T05:24:45;6.83;;;3.90;;
27145;SDS011;17980;51.744;7.190;2022-11-11T05:27:31;8.13;;;3.50;;
27145;SDS011;17980;51.744;7.190;2022-11-11T05:32:47;7.37;;;4.50;;
27145;SDS011;17980;51.744;7.190;2022-11-11T05:35:15;6.03;;;3.37;;
27145;SDS011;17980;51.744;7.190;2022-11-11T05:37:52;7.63;;;3.63;;
27145;SDS011;17980;51.744;7.190;2022-11-11T05:43:15;5.77;;;3.93;;
27145;SDS011;17980;51.744;7.190;2022-11-11T05:45:42;6.97;;;3.73;;
27145;SDS011;17980;51.744;7.190;2022-11-11T05:48:19;9.03;;;4.07;;
27145;SDS011;17980;51.744;7.190;2022-11-11T05:53:22;7.10;;;4.20;;
27145;SDS011;17980;51.744;7.190;2022-11-11T05:55:49;12.13;;;5.57;;
27145;SDS011;17980;51.744;7.190;2022-11-11T05:58:26;9.70;;;4.37;;
27145;SDS011;17980;51.744;7.190;2022-11-11T06:01:03;6.87;;;4.53;;
27145;SDS011;17980;51.744;7.190;2022-11-11T06:06:06;9.10;;;4.97;;
27145;SDS011;17980;51.744;7.190;2022-11-11T06:08:34;8.47;;;3.90;;
27145;SDS011;17980;51.744;7.190;2022-11-11T06:11:01;8.83;;;4.07;;
27145;SDS011;17980;51.744;7.190;2022-11-11T06:13:28;6.30;;;3.80;;
27145;SDS011;17980;51.744;7.190;2022-11-11T06:16:11;6.67;;;4.03;;
27145;SDS011;17980;51.744;7.190;2022-11-11T06:18:38;10.10;;;4.30;;
27145;SDS011;17980;51.744;7.190;2022-11-11T06:21:06;10.30;;;3.90;;
27145;SDS011;17980;51.744;7.190;2022-11-11T06:26:09;10.20;;;4.57;;
27145;SDS011;17980;51.744;7.190;2022-11-11T06:28:38;10.33;;;4.10;;
27145;SDS011;17980;51.744;7.190;2022-11-11T06:31:06;6.33;;;3.90;;
27145;SDS011;17980;51.744;7.190;2022-11-11T06:33:34;16.67;;;4.53;;
27145;SDS011;17980;51.744;7.190;2022-11-11T06:36:12;9.27;;;4.60;;
27145;SDS011;17980;51.744;7.190;2022-11-11T06:38:40;12.50;;;5.00;;
27145;SDS011;17980;51.744;7.190;2022-11-11T06:41:08;11.10;;;4.30;;
27145;SDS011;17980;51.744;7.190;2022-11-11T06:43:45;10.23;;;5.00;;
27145;SDS011;17980;51.744;7.190;2022-11-11T06:46:19;8.63;;;5.00;;
27145;SDS011;17980;51.744;7.190;2022-11-11T06:48:52;9.93;;;5.17;;
27145;SDS011;17980;51.744;7.190;2022-11-11T06:51:19;9.17;;;5.10;;
27145;SDS011;17980;51.744;7.190;2022-11-11T06:56:22;8.03;;;4.43;;
27145;SDS011;17980;51.744;7.190;2022-11-11T06:58:49;4.80;;;3.50;;
27145;SDS011;17980;51.744;7.190;2022-11-11T07:01:16;5.47;;;3.53;;
27145;SDS011;17980;51.744;7.190;2022-11-11T07:03:44;8.33;;;3.57;;
27145;SDS011;17980;51.744;7.190;2022-11-11T07:06:20;7.33;;;3.27;;
27145;SDS011;17980;51.744;7.190;2022-11-11T07:08:48;5.50;;;2.80;;
27145;SDS011;17980;51.744;7.190;2022-11-11T07:11:15;7.53;;;3.30;;
27145;SDS011;17980;51.744;7.190;2022-11-11T07:13:52;6.83;;;2.90;;
27145;SDS011;17980;51.744;7.190;2022-11-11T07:16:19;6.97;;;3.20;;
27145;SDS011;17980;51.744;7.190;2022-11-11T07:18:56;7.30;;;3.17;;
27145;SDS011;17980;51.744;7.190;2022-11-11T07:21:24;5.73;;;2.70;;
27145;SDS011;17980;51.744;7.190;2022-11-11T07:23:51;8.90;;;2.53;;
27145;SDS011;17980;51.744;7.190;2022-11-11T07:26:19;5.17;;;3.30;;
27145;SDS011;17980;51.744;7.190;2022-11-11T07:28:46;7.67;;;3.33;;
27145;SDS011;17980;51.744;7.190;2022-11-11T07:31:23;6.77;;;2.90;;
27145;SDS011;17980;51.744;7.190;2022-11-11T07:33:50;5.07;;;2.20;;
27145;SDS011;17980;51.744;7.190;2022-11-11T07:36:27;3.13;;;1.90;;
27145;SDS011;17980;51.744;7.190;2022-11-11T07:38:54;7.83;;;2.00;;
27145;SDS011;17980;51.744;7.190;2022-11-11T07:41:21;8.93;;;2.20;;
27145;SDS011;17980;51.744;7.190;2022-11-11T07:43:48;5.27;;;2.20;;
27145;SDS011;17980;51.744;7.190;2022-11-11T07:46:25;3.40;;;2.53;;
27145;SDS011;17980;51.744;7.190;2022-11-11T07:48:53;5.87;;;1.80;;
27145;SDS011;17980;51.744;7.190;2022-11-11T07:51:20;5.00;;;1.73;;
27145;SDS011;17980;51.744;7.190;2022-11-11T07:53:47;7.17;;;1.77;;
27145;SDS011;17980;51.744;7.190;2022-11-11T07:56:24;1.67;;;1.10;;
27145;SDS011;17980;51.744;7.190;2022-11-11T07:58:51;2.00;;;1.23;;
27145;SDS011;17980;51.744;7.190;2022-11-11T08:01:19;3.47;;;1.43;;
27145;SDS011;17980;51.744;7.190;2022-11-11T08:03:55;11.13;;;1.17;;
27145;SDS011;17980;51.744;7.190;2022-11-11T08:06:23;3.83;;;1.03;;
27145;SDS011;17980;51.744;7.190;2022-11-11T08:08:59;3.23;;;1.47;;
27145;SDS011;17980;51.744;7.190;2022-11-11T08:11:27;4.50;;;1.00;;
27145;SDS011;17980;51.744;7.190;2022-11-11T08:14:04;5.77;;;1.50;;
27145;SDS011;17980;51.744;7.190;2022-11-11T08:16:31;2.97;;;1.17;;
27145;SDS011;17980;51.744;7.190;2022-11-11T08:19:08;2.83;;;1.17;;
27145;SDS011;17980;51.744;7.190;2022-11-11T08:21:35;1.97;;;1.10;;
27145;SDS011;17980;51.744;7.190;2022-11-11T08:24:02;4.60;;;1.23;;
27145;SDS011;17980;51.744;7.190;2022-11-11T08:26:39;1.83;;;1.03;;
27145;SDS011;17980;51.744;7.190;2022-11-11T08:29:06;2.80;;;1.10;;
27145;SDS011;17980;51.744;7.190;2022-11-11T08:31:43;3.33;;;1.10;;
27145;SDS011;17980;51.744;7.190;2022-11-11T08:34:11;4.33;;;1.53;;
27145;SDS011;17980;51.744;7.190;2022-11-11T08:36:51;5.20;;;1.10;;
27145;SDS011;17980;51.744;7.190;2022-11-11T08:39:18;6.87;;;1.33;;
27145;SDS011;17980;51.744;7.190;2022-11-11T08:41:45;2.30;;;1.23;;
27145;SDS011;17980;51.744;7.190;2022-11-11T08:44:13;6.40;;;1.00;;
27145;SDS011;17980;51.744;7.190;2022-11-11T08:46:50;3.90;;;1.07;;
27145;SDS011;17980;51.744;7.190;2022-11-11T08:49:17;6.83;;;1.20;;
27145;SDS011;17980;51.744;7.190;2022-11-11T08:51:44;4.10;;;1.20;;
27145;SDS011;17980;51.744;7.190;2022-11-11T08:54:11;4.00;;;1.20;;
27145;SDS011;17980;51.744;7.190;2022-11-11T08:56:48;3.60;;;1.20;;
27145;SDS011;17980;51.744;7.190;2022-11-11T08:59:15;7.10;;;1.57;;
27145;SDS011;17980;51.744;7.190;2022-11-11T09:04:25;7.50;;;2.50;;
27145;SDS011;17980;51.744;7.190;2022-11-11T09:06:52;4.47;;;1.73;;
27145;SDS011;17980;51.744;7.190;2022-11-11T09:09:29;3.27;;;1.90;;
27145;SDS011;17980;51.744;7.190;2022-11-11T09:11:56;3.90;;;1.50;;
27145;SDS011;17980;51.744;7.190;2022-11-11T09:14:33;1.33;;;1.13;;
27145;SDS011;17980;51.744;7.190;2022-11-11T09:17:01;8.00;;;1.37;;
27145;SDS011;17980;51.744;7.190;2022-11-11T09:19:38;3.53;;;1.60;;
27145;SDS011;17980;51.744;7.190;2022-11-11T09:22:05;2.23;;;1.10;;
27145;SDS011;17980;51.744;7.190;2022-11-11T09:24:42;2.50;;;1.17;;
27145;SDS011;17980;51.744;7.190;2022-11-11T09:27:09;5.00;;;1.23;;
27145;SDS011;17980;51.744;7.190;2022-11-11T09:29:46;2.97;;;1.20;;
27145;SDS011;17980;51.744;7.190;2022-11-11T09:32:13;3.43;;;1.43;;
27145;SDS011;17980;51.744;7.190;2022-11-11T09:34:40;2.30;;;1.20;;
27145;SDS011;17980;51.744;7.190;2022-11-11T09:37:17;3.33;;;1.10;;
27145;SDS011;17980;51.744;7.190;2022-11-11T09:39:44;3.80;;;1.40;;
27145;SDS011;17980;51.744;7.190;2022-11-11T09:47:41;4.83;;;1.37;;
27145;SDS011;17980;51.744;7.190;2022-11-11T09:50:10;8.17;;;1.20;;
27145;SDS011;17980;51.744;7.190;2022-11-11T09:52:42;7.77;;;1.27;;
27145;SDS011;17980;51.744;7.190;2022-11-11T09:55:20;3.27;;;1.00;;
27145;SDS011;17980;51.744;7.190;2022-11-11T09:57:50;4.50;;;1.27;;
27145;SDS011;17980;51.744;7.190;2022-11-11T10:00:23;2.33;;;0.97;;
27145;SDS011;17980;51.744;7.190;2022-11-11T10:02:53;2.40;;;1.27;;
27145;SDS011;17980;51.744;7.190;2022-11-11T10:05:31;2.07;;;1.00;;
27145;SDS011;17980;51.744;7.190;2022-11-11T10:08:03;2.40;;;0.77;;
27145;SDS011;17980;51.744;7.190;2022-11-11T10:10:37;3.10;;;0.80;;
27145;SDS011;17980;51.744;7.190;2022-11-11T10:13:14;5.13;;;0.70;;
27145;SDS011;17980;51.744;7.190;2022-11-11T10:15:47;9.47;;;1.70;;
27145;SDS011;17980;51.744;7.190;2022-11-11T10:18:28;4.50;;;0.87;;
27145;SDS011;17980;51.744;7.190;2022-11-11T10:21:07;2.43;;;1.00;;
27145;SDS011;17980;51.744;7.190;2022-11-11T10:23:45;6.47;;;1.33;;
27145;SDS011;17980;51.744;7.190;2022-11-11T10:26:15;5.97;;;1.30;;
27145;SDS011;17980;51.744;7.190;2022-11-11T10:28:53;4.67;;;0.90;;
27145;SDS011;17980;51.744;7.190;2022-11-11T10:31:21;3.17;;;0.70;;
27145;SDS011;17980;51.744;7.190;2022-11-11T10:33:51;1.53;;;0.70;;
27145;SDS011;17980;51.744;7.190;2022-11-11T10:36:29;4.43;;;0.80;;
27145;SDS011;17980;51.744;7.190;2022-11-11T10:38:58;4.97;;;0.90;;
27145;SDS011;17980;51.744;7.190;2022-11-11T10:41:29;4.87;;;0.90;;
27145;SDS011;17980;51.744;7.190;2022-11-11T10:44:17;2.40;;;0.90;;
27145;SDS011;17980;51.744;7.190;2022-11-11T10:49:24;7.70;;;1.67;;
27145;SDS011;17980;51.744;7.190;2022-11-11T10:51:55;2.67;;;0.70;;
27145;SDS011;17980;51.744;7.190;2022-11-11T10:54:34;2.70;;;0.70;;
27145;SDS011;17980;51.744;7.190;2022-11-11T10:57:08;2.80;;;1.03;;
27145;SDS011;17980;51.744;7.190;2022-11-11T10:59:38;1.80;;;0.80;;
27145;SDS011;17980;51.744;7.190;2022-11-11T11:02:18;7.57;;;1.00;;
27145;SDS011;17980;51.744;7.190;2022-11-11T11:04:49;2.27;;;0.80;;
27145;SDS011;17980;51.744;7.190;2022-11-11T11:07:28;2.80;;;1.03;;
27145;SDS011;17980;51.744;7.190;2022-11-11T11:10:00;3.53;;;0.93;;
27145;SDS011;17980;51.744;7.190;2022-11-11T11:12:30;3.27;;;1.03;;
27145;SDS011;17980;51.744;7.190;2022-11-11T11:15:09;4.00;;;0.90;;
27145;SDS011;17980;51.744;7.190;2022-11-11T11:17:39;4.50;;;1.37;;
27145;SDS011;17980;51.744;7.190;2022-11-11T11:20:12;6.10;;;1.10;;
27145;SDS011;17980;51.744;7.190;2022-11-11T11:22:44;5.10;;;0.90;;
27145;SDS011;17980;51.744;7.190;2022-11-11T11:25:22;1.03;;;0.90;;
27145;SDS011;17980;51.744;7.190;2022-11-11T11:27:50;5.80;;;1.10;;
27145;SDS011;17980;51.744;7.190;2022-11-11T11:30:19;2.00;;;0.80;;
27145;SDS011;17980;51.744;7.190;2022-11-11T11:32:57;3.77;;;0.97;;
27145;SDS011;17980;51.744;7.190;2022-11-11T11:35:30;4.50;;;1.20;;
27145;SDS011;17980;51.744;7.190;2022-11-11T11:38:01;8.47;;;0.93;;
27145;SDS011;17980;51.744;7.190;2022-11-11T11:40:43;5.23;;;0.90;;
27145;SDS011;17980;51.744;7.190;2022-11-11T11:43:25;5.77;;;1.40;;
27145;SDS011;17980;51.744;7.190;2022-11-11T11:45:58;2.80;;;1.20;;
27145;SDS011;17980;51.744;7.190;2022-11-11T11:48:39;3.90;;;1.10;;
27145;SDS011;17980;51.744;7.190;2022-11-11T11:51:32;5.10;;;1.00;;
27145;SDS011;17980;51.744;7.190;2022-11-11T11:54:08;2.20;;;0.80;;
27145;SDS011;17980;51.744;7.190;2022-11-11T11:56:51;5.17;;;1.00;;
27145;SDS011;17980;51.744;7.190;2022-11-11T11:59:24;5.73;;;0.90;;
27145;SDS011;17980;51.744;7.190;2022-11-11T12:02:04;7.37;;;1.37;;
27145;SDS011;17980;51.744;7.190;2022-11-11T12:04:37;4.07;;;1.10;;
27145;SDS011;17980;51.744;7.190;2022-11-11T12:07:26;7.80;;;1.33;;
27145;SDS011;17980;51.744;7.190;2022-11-11T12:10:02;3.37;;;0.83;;
27145;SDS011;17980;51.744;7.190;2022-11-11T12:12:34;4.50;;;0.90;;
27145;SDS011;17980;51.744;7.190;2022-11-11T12:15:08;3.50;;;0.90;;
27145;SDS011;17980;51.744;7.190;2022-11-11T12:17:53;5.03;;;1.50;;
27145;SDS011;17980;51.744;7.190;2022-11-11T12:20:24;8.10;;;1.20;;
27145;SDS011;17980;51.744;7.190;2022-11-11T12:23:02;3.63;;;1.00;;
27145;SDS011;17980;51.744;7.190;2022-11-11T12:25:38;7.03;;;1.57;;
27145;SDS011;17980;51.744;7.190;2022-11-11T12:28:12;4.47;;;1.10;;
27145;SDS011;17980;51.744;7.190;2022-11-11T12:30:53;6.10;;;1.20;;
27145;SDS011;17980;51.744;7.190;2022-11-11T12:33:42;3.67;;;1.03;;
27145;SDS011;17980;51.744;7.190;2022-11-11T12:36:33;5.37;;;1.10;;
27145;SDS011;17980;51.744;7.190;2022-11-11T12:39:19;4.47;;;1.00;;
27145;SDS011;17980;51.744;7.190;2022-11-11T12:41:49;4.13;;;1.17;;
27145;SDS011;17980;51.744;7.190;2022-11-11T12:44:20;3.27;;;1.30;;
27145;SDS011;17980;51.744;7.190;2022-11-11T12:47:08;4.33;;;1.50;;
27145;SDS011;17980;51.744;7.190;2022-11-11T12:49:46;8.00;;;1.40;;
27145;SDS011;17980;51.744;7.190;2022-11-11T12:52:33;5.83;;;1.00;;
27145;SDS011;17980;51.744;7.190;2022-11-11T12:57:33;4.03;;;1.40;;
27145;SDS011;17980;51.744;7.190;2022-11-11T13:00:07;8.87;;;2.53;;
27145;SDS011;17980;51.744;7.190;2022-11-11T13:02:52;5.87;;;1.73;;
27145;SDS011;17980;51.744;7.190;2022-11-11T13:05:30;3.33;;;1.33;;
27145;SDS011;17980;51.744;7.190;2022-11-11T13:08:10;3.47;;;1.30;;
27145;SDS011;17980;51.744;7.190;2022-11-11T13:10:55;5.20;;;1.33;;
27145;SDS011;17980;51.744;7.190;2022-11-11T13:13:37;2.17;;;1.00;;
27145;SDS011;17980;51.744;7.190;2022-11-11T13:16:22;4.43;;;1.20;;
27145;SDS011;17980;51.744;7.190;2022-11-11T13:18:53;7.23;;;1.17;;
27145;SDS011;17980;51.744;7.190;2022-11-11T13:21:25;4.87;;;1.20;;
27145;SDS011;17980;51.744;7.190;2022-11-11T13:23:57;3.83;;;1.50;;
27145;SDS011;17980;51.744;7.190;2022-11-11T13:26:35;7.57;;;3.07;;
27145;SDS011;17980;51.744;7.190;2022-11-11T13:29:12;9.83;;;5.23;;
27145;SDS011;17980;51.744;7.190;2022-11-11T13:34:36;8.27;;;2.40;;
27145;SDS011;17980;51.744;7.190;2022-11-11T13:39:46;11.77;;;1.80;;
27145;SDS011;17980;51.744;7.190;2022-11-11T13:42:20;4.40;;;1.13;;
27145;SDS011;17980;51.744;7.190;2022-11-11T13:44:57;5.47;;;1.10;;
27145;SDS011;17980;51.744;7.190;2022-11-11T13:47:28;5.63;;;1.20;;
27145;SDS011;17980;51.744;7.190;2022-11-11T13:50:07;4.10;;;1.10;;
27145;SDS011;17980;51.744;7.190;2022-11-11T13:52:41;4.80;;;1.10;;
27145;SDS011;17980;51.744;7.190;2022-11-11T13:55:23;4.13;;;1.10;;
27145;SDS011;17980;51.744;7.190;2022-11-11T13:57:54;2.70;;;0.80;;
27145;SDS011;17980;51.744;7.190;2022-11-11T14:00:32;4.63;;;0.97;;
27145;SDS011;17980;51.744;7.190;2022-11-11T14:12:39;5.87;;;1.10;;
27145;SDS011;17980;51.744;7.190;2022-11-11T14:15:33;4.97;;;1.30;;
27145;SDS011;17980;51.744;7.190;2022-11-11T14:18:28;3.70;;;1.00;;
27145;SDS011;17980;51.744;7.190;2022-11-11T14:20:55;3.90;;;1.00;;
27145;SDS011;17980;51.744;7.190;2022-11-11T14:23:33;3.93;;;1.17;;
27145;SDS011;17980;51.744;7.190;2022-11-11T14:26:24;4.17;;;0.90;;
27145;SDS011;17980;51.744;7.190;2022-11-11T14:28:53;3.73;;;1.00;;
27145;SDS011;17980;51.744;7.190;2022-11-11T14:37:58;3.90;;;1.10;;
27145;SDS011;17980;51.744;7.190;2022-11-11T14:40:50;6.20;;;0.97;;
27145;SDS011;17980;51.744;7.190;2022-11-11T14:43:34;6.10;;;1.43;;
27145;SDS011;17980;51.744;7.190;2022-11-11T14:46:05;3.27;;;0.80;;
27145;SDS011;17980;51.744;7.190;2022-11-11T14:48:56;4.60;;;1.00;;
27145;SDS011;17980;51.744;7.190;2022-11-11T14:51:37;5.90;;;1.10;;
27145;SDS011;17980;51.744;7.190;2022-11-11T14:54:23;3.00;;;0.77;;
27145;SDS011;17980;51.744;7.190;2022-11-11T14:57:06;6.77;;;1.07;;
27145;SDS011;17980;51.744;7.190;2022-11-11T14:59:38;4.30;;;1.23;;
27145;SDS011;17980;51.744;7.190;2022-11-11T15:02:10;2.73;;;1.00;;
27145;SDS011;17980;51.744;7.190;2022-11-11T15:04:41;3.07;;;1.00;;
27145;SDS011;17980;51.744;7.190;2022-11-11T15:10:18;1.97;;;1.07;;
27145;SDS011;17980;51.744;7.190;2022-11-11T15:13:16;5.27;;;0.90;;
27145;SDS011;17980;51.744;7.190;2022-11-11T15:16:02;2.57;;;0.80;;
27145;SDS011;17980;51.744;7.190;2022-11-11T15:18:42;2.47;;;0.90;;
27145;SDS011;17980;51.744;7.190;2022-11-11T15:21:24;2.90;;;1.00;;
27145;SDS011;17980;51.744;7.190;2022-11-11T15:23:59;4.10;;;1.10;;
27145;SDS011;17980;51.744;7.190;2022-11-11T15:26:40;1.70;;;1.10;;
27145;SDS011;17980;51.744;7.190;2022-11-11T15:29:13;1.53;;;0.90;;
27145;SDS011;17980;51.744;7.190;2022-11-11T15:31:56;3.87;;;0.87;;
27145;SDS011;17980;51.744;7.190;2022-11-11T15:34:28;4.90;;;1.20;;
27145;SDS011;17980;51.744;7.190;2022-11-11T15:37:07;2.63;;;1.30;;
27145;SDS011;17980;51.744;7.190;2022-11-11T15:39:37;6.17;;;1.60;;
27145;SDS011;17980;51.744;7.190;2022-11-11T15:42:10;3.93;;;1.20;;
27145;SDS011;17980;51.744;7.190;2022-11-11T15:44:48;11.83;;;1.57;;
27145;SDS011;17980;51.744;7.190;2022-11-11T15:47:16;4.83;;;1.60;;
27145;SDS011;17980;51.744;7.190;2022-11-11T15:49:54;4.03;;;1.77;;
27145;SDS011;17980;51.744;7.190;2022-11-11T15:52:26;3.20;;;1.30;;
27145;SDS011;17980;51.744;7.190;2022-11-11T15:57:32;5.13;;;1.40;;
27145;SDS011;17980;51.744;7.190;2022-11-11T16:00:00;4.97;;;1.57;;
27145;SDS011;17980;51.744;7.190;2022-11-11T16:02:31;3.80;;;1.30;;
27145;SDS011;17980;51.744;7.190;2022-11-11T16:05:02;2.80;;;1.03;;
27145;SDS011;17980;51.744;7.190;2022-11-11T16:07:40;6.10;;;1.60;;
27145;SDS011;17980;51.744;7.190;2022-11-11T16:10:29;2.87;;;0.90;;
27145;SDS011;17980;51.744;7.190;2022-11-11T16:12:52;4.70;;;0.97;;
27145;SDS011;17980;51.744;7.190;2022-11-11T16:15:23;5.80;;;0.97;;
27145;SDS011;17980;51.744;7.190;2022-11-11T16:18:02;3.80;;;1.20;;
27145;SDS011;17980;51.744;7.190;2022-11-11T16:20:34;6.20;;;1.40;;
27145;SDS011;17980;51.744;7.190;2022-11-11T16:23:04;3.40;;;1.03;;
27145;SDS011;17980;51.744;7.190;2022-11-11T16:25:41;4.80;;;1.20;;
27145;SDS011;17980;51.744;7.190;2022-11-11T16:28:09;4.40;;;1.37;;
27145;SDS011;17980;51.744;7.190;2022-11-11T16:30:38;3.07;;;1.07;;
27145;SDS011;17980;51.744;7.190;2022-11-11T16:33:16;4.63;;;1.30;;
27145;SDS011;17980;51.744;7.190;2022-11-11T16:35:55;3.50;;;1.73;;